Time;durP1;ratioP1;P1;durP2;ratioP2;P2;SDS_P1;SDS_P2;PMS_P1;PMS_P2;Temp;Humidity;BMP_temperature;BMP_pressure;BME280_temperature;BME280_humidity;BME280_pressure;Samples;Min_cycle;Max_cycle;Signal;HPM_P1;HPM_P2
2022/10/07 00:01:54;;;;;;;7.97;1.25;;;;;;;;;;4994087;28;20133;-52
2022/10/07 00:04:22;;;;;;;4.50;1.65;;;;;;;;;;4994954;28;20117;-52
2022/10/07 00:06:49;;;;;;;4.00;1.30;;;;;;;;;;4993781;28;20054;-50
2022/10/07 00:09:19;;;;;;;5.15;1.40;;;;;;;;;;4994192;28;20046;-54
2022/10/07 00:11:45;;;;;;;4.10;1.08;;;;;;;;;;4994199;28;20058;-51
2022/10/07 00:14:12;;;;;;;3.10;1.17;;;;;;;;;;4992451;28;20054;-51
2022/10/07 00:16:43;;;;;;;6.97;1.67;;;;;;;;;;4993912;28;20050;-50
2022/10/07 00:19:11;;;;;;;4.75;1.30;;;;;;;;;;4991716;28;20491;-50
2022/10/07 00:21:39;;;;;;;3.88;1.23;;;;;;;;;;4993397;28;20050;-54
2022/10/07 00:24:15;;;;;;;9.27;1.42;;;;;;;;;;4993033;28;20043;-51
2022/10/07 00:26:45;;;;;;;4.70;1.30;;;;;;;;;;4993311;28;20138;-52
2022/10/07 00:29:12;;;;;;;7.75;1.10;;;;;;;;;;4993070;28;20507;-53
2022/10/07 00:31:49;;;;;;;2.70;1.13;;;;;;;;;;4993128;28;20046;-53
2022/10/07 00:34:15;;;;;;;4.13;0.90;;;;;;;;;;4991566;28;20460;-51
2022/10/07 00:36:45;;;;;;;2.85;1.10;;;;;;;;;;4990222;28;20077;-51
2022/10/07 00:39:15;;;;;;;8.40;1.77;;;;;;;;;;4993751;28;20344;-52
2022/10/07 00:41:44;;;;;;;6.88;1.33;;;;;;;;;;4993459;28;20054;-53
2022/10/07 00:44:40;;;;;;;4.43;1.30;;;;;;;;;;4993774;28;20100;-54
2022/10/07 00:47:14;;;;;;;6.57;1.00;;;;;;;;;;4991414;28;20050;-53
2022/10/07 00:49:51;;;;;;;5.18;1.40;;;;;;;;;;4988405;28;20069;-54
2022/10/07 00:52:28;;;;;;;5.50;2.00;;;;;;;;;;4987158;28;20050;-52
2022/10/07 00:54:58;;;;;;;6.28;1.25;;;;;;;;;;4991010;28;20050;-52
2022/10/07 00:57:28;;;;;;;7.03;0.93;;;;;;;;;;4994158;28;20061;-53
2022/10/07 00:59:56;;;;;;;3.78;1.33;;;;;;;;;;4993329;28;20054;-54
2022/10/07 01:02:26;;;;;;;3.55;1.15;;;;;;;;;;4990736;28;20526;-52
2022/10/07 01:05:02;;;;;;;6.07;1.38;;;;;;;;;;4991497;28;20395;-54
2022/10/07 01:07:28;;;;;;;5.28;1.27;;;;;;;;;;4993492;28;20459;-51
2022/10/07 01:09:59;;;;;;;7.65;1.00;;;;;;;;;;4997611;28;20134;-50
2022/10/07 01:12:29;;;;;;;2.30;1.02;;;;;;;;;;4986617;28;20470;-51
2022/10/07 01:15:00;;;;;;;6.53;1.50;;;;;;;;;;4994270;28;20054;-50
2022/10/07 01:17:32;;;;;;;7.05;1.88;;;;;;;;;;4981495;28;20050;-51
2022/10/07 01:20:18;;;;;;;5.68;1.30;;;;;;;;;;4989546;28;20050;-50
2022/10/07 01:22:54;;;;;;;5.53;1.48;;;;;;;;;;4992878;28;20396;-50
2022/10/07 01:25:31;;;;;;;2.95;1.13;;;;;;;;;;4993024;28;20046;-50
2022/10/07 01:28:03;;;;;;;5.05;1.38;;;;;;;;;;4991745;28;20070;-50
2022/10/07 01:30:34;;;;;;;4.88;1.10;;;;;;;;;;4992991;28;20483;-51
2022/10/07 01:33:05;;;;;;;7.43;1.70;;;;;;;;;;4992178;28;20460;-53
2022/10/07 01:38:25;;;;;;;2.78;1.10;;;;;;;;;;4992166;28;20049;-53
2022/10/07 01:40:54;;;;;;;3.17;1.17;;;;;;;;;;4992205;28;20065;-50
2022/10/07 01:43:27;;;;;;;6.30;1.10;;;;;;;;;;4991611;28;20054;-50
2022/10/07 01:45:56;;;;;;;4.25;1.17;;;;;;;;;;4994156;28;20133;-50
2022/10/07 01:48:25;;;;;;;4.63;1.48;;;;;;;;;;4999363;28;20084;-51
2022/10/07 01:50:58;;;;;;;5.32;1.30;;;;;;;;;;4992644;28;20058;-53
2022/10/07 01:53:36;;;;;;;3.38;1.27;;;;;;;;;;4992083;28;20463;-53
2022/10/07 01:56:15;;;;;;;8.27;1.98;;;;;;;;;;4993048;28;20057;-54
2022/10/07 01:58:58;;;;;;;6.72;2.03;;;;;;;;;;4995697;28;20054;-53
2022/10/07 02:01:30;;;;;;;6.10;1.65;;;;;;;;;;4990362;28;20058;-50
2022/10/07 02:04:14;;;;;;;4.20;1.20;;;;;;;;;;4994700;28;20042;-50
2022/10/07 02:06:48;;;;;;;6.95;1.60;;;;;;;;;;4983363;28;20066;-52
2022/10/07 02:09:20;;;;;;;4.15;1.33;;;;;;;;;;4986045;28;20050;-51
2022/10/07 02:11:56;;;;;;;6.05;1.80;;;;;;;;;;4985599;28;20078;-54
2022/10/07 02:14:23;;;;;;;;;;;;;;;;;;4980074;28;20062;-53
2022/10/07 02:17:01;;;;;;;5.32;1.65;;;;;;;;;;4990985;28;19980;-50
2022/10/07 02:19:39;;;;;;;7.88;1.70;;;;;;;;;;4995618;28;20108;-52
2022/10/07 02:22:09;;;;;;;12.95;3.05;;;;;;;;;;4984981;28;20419;-52
2022/10/07 02:24:40;;;;;;;5.25;1.70;;;;;;;;;;4979510;28;20069;-52
2022/10/07 02:27:10;;;;;;;6.75;1.92;;;;;;;;;;4979879;28;20094;-52
2022/10/07 02:29:40;;;;;;;5.90;1.88;;;;;;;;;;4980142;28;20051;-51
2022/10/07 02:32:11;;;;;;;5.25;1.77;;;;;;;;;;4994793;28;20341;-53
2022/10/07 02:34:42;;;;;;;6.72;1.70;;;;;;;;;;4990868;28;20051;-53
2022/10/07 02:37:13;;;;;;;4.60;2.53;;;;;;;;;;4989918;28;20530;-51
2022/10/07 02:39:45;;;;;;;5.68;1.67;;;;;;;;;;4993961;28;20050;-51
2022/10/07 02:42:19;;;;;;;8.38;1.65;;;;;;;;;;4985503;28;20134;-52
2022/10/07 02:44:49;;;;;;;5.28;1.90;;;;;;;;;;4982908;28;20069;-54
2022/10/07 02:47:27;;;;;;;4.97;2.00;;;;;;;;;;4996291;28;20076;-51
2022/10/07 02:49:59;;;;;;;7.20;1.52;;;;;;;;;;4982217;28;20050;-52
2022/10/07 02:52:31;;;;;;;5.55;1.80;;;;;;;;;;4996395;28;20081;-54
2022/10/07 02:55:08;;;;;;;7.18;2.25;;;;;;;;;;4981552;28;20055;-54
2022/10/07 02:57:39;;;;;;;5.75;1.67;;;;;;;;;;4995719;28;20498;-50
2022/10/07 03:00:09;;;;;;;5.38;1.67;;;;;;;;;;4982384;28;20082;-51
2022/10/07 03:02:52;;;;;;;7.57;2.33;;;;;;;;;;4995610;28;20042;-53
2022/10/07 03:05:24;;;;;;;6.93;1.95;;;;;;;;;;4985585;28;20101;-50
2022/10/07 03:07:56;;;;;;;4.05;1.50;;;;;;;;;;4994872;28;20057;-53
2022/10/07 03:10:25;;;;;;;5.57;1.92;;;;;;;;;;4994291;28;20459;-55
2022/10/07 03:12:55;;;;;;;5.53;1.65;;;;;;;;;;4995222;28;20149;-51
2022/10/07 03:15:23;;;;;;;9.60;1.60;;;;;;;;;;4995782;28;20050;-54
2022/10/07 03:17:53;;;;;;;6.88;1.75;;;;;;;;;;4984342;28;20089;-52
2022/10/07 03:20:23;;;;;;;8.07;1.98;;;;;;;;;;4995435;28;20058;-52
2022/10/07 03:22:52;;;;;;;6.35;1.60;;;;;;;;;;4995309;28;20050;-51
2022/10/07 03:25:21;;;;;;;5.38;1.70;;;;;;;;;;4995510;28;20082;-54
2022/10/07 03:27:53;;;;;;;8.18;1.70;;;;;;;;;;4994802;28;20062;-52
2022/10/07 03:30:21;;;;;;;6.40;1.55;;;;;;;;;;4995418;28;20054;-54
2022/10/07 03:32:52;;;;;;;5.85;1.88;;;;;;;;;;4995096;28;20054;-54
2022/10/07 03:35:25;;;;;;;6.05;1.80;;;;;;;;;;4995393;28;20050;-53
2022/10/07 03:37:56;;;;;;;5.35;1.95;;;;;;;;;;4994899;28;20073;-53
2022/10/07 03:40:26;;;;;;;8.45;2.22;;;;;;;;;;4995777;28;20062;-52
2022/10/07 03:42:54;;;;;;;9.55;2.50;;;;;;;;;;4994858;28;20407;-51
2022/10/07 03:45:22;;;;;;;6.20;1.58;;;;;;;;;;4995295;28;20133;-54
2022/10/07 03:47:52;;;;;;;10.38;2.17;;;;;;;;;;4999997;28;20046;-51
2022/10/07 03:50:27;;;;;;;9.15;2.10;;;;;;;;;;4994749;28;20392;-51
2022/10/07 03:52:54;;;;;;;4.07;1.67;;;;;;;;;;4994901;28;20066;-52
2022/10/07 03:55:24;;;;;;;6.05;1.85;;;;;;;;;;5003268;28;20050;-52
2022/10/07 03:57:52;;;;;;;4.30;1.80;;;;;;;;;;4998701;28;20077;-51
2022/10/07 04:00:23;;;;;;;3.95;1.58;;;;;;;;;;5002049;28;20054;-51
2022/10/07 04:02:51;;;;;;;9.43;2.10;;;;;;;;;;4999031;28;20085;-54
2022/10/07 04:05:21;;;;;;;5.97;2.08;;;;;;;;;;4977228;28;20528;-51
2022/10/07 04:07:54;;;;;;;5.97;1.98;;;;;;;;;;4988748;28;20065;-50
2022/10/07 04:10:23;;;;;;;10.07;2.65;;;;;;;;;;4988896;28;20050;-51
2022/10/07 04:12:59;;;;;;;6.10;2.35;;;;;;;;;;4994674;28;20081;-54
2022/10/07 04:15:27;;;;;;;6.90;2.25;;;;;;;;;;4993821;28;20061;-53
2022/10/07 04:17:57;;;;;;;6.90;2.20;;;;;;;;;;4994421;28;20068;-54
2022/10/07 04:20:25;;;;;;;8.80;2.50;;;;;;;;;;4987833;28;20046;-52
2022/10/07 04:22:54;;;;;;;4.47;2.10;;;;;;;;;;4993191;28;20609;-54
2022/10/07 04:25:41;;;;;;;7.30;2.05;;;;;;;;;;4994044;28;20054;-55
2022/10/07 04:28:17;;;;;;;3.97;2.03;;;;;;;;;;4993577;28;20064;-54
2022/10/07 04:30:50;;;;;;;6.28;1.90;;;;;;;;;;4993311;28;20060;-53
2022/10/07 04:33:17;;;;;;;5.95;1.92;;;;;;;;;;4993644;28;20050;-54
2022/10/07 04:35:45;;;;;;;11.48;3.95;;;;;;;;;;4993210;28;20054;-54
2022/10/07 04:38:15;;;;;;;7.50;2.40;;;;;;;;;;4993776;28;20132;-51
2022/10/07 04:40:51;;;;;;;7.03;1.90;;;;;;;;;;4993456;28;20073;-51
2022/10/07 04:43:22;;;;;;;7.80;1.90;;;;;;;;;;4986567;28;20053;-50
2022/10/07 04:45:59;;;;;;;9.07;2.30;;;;;;;;;;4988603;28;20112;-51
2022/10/07 04:48:29;;;;;;;8.80;1.92;;;;;;;;;;4996484;28;20497;-50
2022/10/07 04:51:01;;;;;;;7.47;2.50;;;;;;;;;;4993770;28;20085;-51
2022/10/07 04:53:34;;;;;;;5.95;1.95;;;;;;;;;;4993409;28;20050;-51
2022/10/07 04:56:04;;;;;;;7.13;2.05;;;;;;;;;;4980190;28;20050;-53
2022/10/07 04:58:34;;;;;;;7.63;2.08;;;;;;;;;;4987891;28;20070;-50
2022/10/07 05:01:03;;;;;;;11.50;3.10;;;;;;;;;;4977288;28;20078;-50
2022/10/07 05:03:31;;;;;;;6.88;1.88;;;;;;;;;;4987228;28;20078;-51
2022/10/07 05:06:01;;;;;;;4.43;1.58;;;;;;;;;;4988074;28;20058;-53
2022/10/07 05:08:28;;;;;;;4.40;1.90;;;;;;;;;;4981029;28;20093;-53
2022/10/07 05:11:01;;;;;;;7.15;2.28;;;;;;;;;;4992744;28;20347;-52
2022/10/07 05:13:31;;;;;;;8.73;2.10;;;;;;;;;;4993672;28;20142;-50
2022/10/07 05:16:08;;;;;;;5.25;2.00;;;;;;;;;;4993107;28;20062;-54
2022/10/07 05:18:38;;;;;;;10.13;2.42;;;;;;;;;;4993143;28;20478;-53
2022/10/07 05:21:15;;;;;;;8.30;2.00;;;;;;;;;;4993325;28;20042;-54
2022/10/07 05:23:45;;;;;;;9.05;2.03;;;;;;;;;;4993117;28;20133;-53
2022/10/07 05:26:19;;;;;;;8.52;1.92;;;;;;;;;;4992889;28;20054;-52
2022/10/07 05:28:48;;;;;;;10.77;2.53;;;;;;;;;;4993698;28;20054;-54
2022/10/07 05:31:16;;;;;;;6.75;2.17;;;;;;;;;;4992338;28;20133;-50
2022/10/07 05:33:43;;;;;;;4.18;2.03;;;;;;;;;;4993195;28;20042;-52
2022/10/07 05:36:13;;;;;;;5.88;1.90;;;;;;;;;;4992781;28;20466;-54
2022/10/07 05:38:40;;;;;;;8.05;2.10;;;;;;;;;;4993097;28;20042;-51
2022/10/07 05:41:21;;;;;;;6.80;2.00;;;;;;;;;;4992861;28;20046;-50
2022/10/07 05:43:50;;;;;;;4.43;1.60;;;;;;;;;;4993146;28;20055;-54
2022/10/07 05:46:20;;;;;;;8.65;2.45;;;;;;;;;;4996510;28;20060;-54
2022/10/07 05:48:49;;;;;;;9.88;2.20;;;;;;;;;;5002025;28;20057;-52
2022/10/07 05:51:17;;;;;;;8.73;2.53;;;;;;;;;;4993172;28;20134;-50
2022/10/07 05:53:48;;;;;;;6.68;1.95;;;;;;;;;;4992839;28;20628;-49
2022/10/07 05:56:16;;;;;;;7.78;1.83;;;;;;;;;;5006018;28;20081;-50
2022/10/07 05:58:46;;;;;;;6.45;1.88;;;;;;;;;;4993091;28;20482;-50
2022/10/07 06:01:17;;;;;;;7.22;1.88;;;;;;;;;;4978940;28;20175;-49
2022/10/07 06:03:49;;;;;;;7.68;2.65;;;;;;;;;;4987613;28;20434;-52
2022/10/07 06:06:16;;;;;;;10.32;2.53;;;;;;;;;;4987565;28;20062;-52
2022/10/07 06:08:44;;;;;;;10.10;2.33;;;;;;;;;;4991354;28;20065;-48
2022/10/07 06:13:59;;;;;;;4.68;2.10;;;;;;;;;;4991422;28;20049;-47
2022/10/07 06:16:35;;;;;;;5.75;1.80;;;;;;;;;;4992580;28;20469;-48
2022/10/07 06:19:01;;;;;;;4.55;1.90;;;;;;;;;;4992818;28;20120;-46
2022/10/07 06:21:42;;;;;;;5.68;1.70;;;;;;;;;;4992853;28;20482;-47
2022/10/07 06:24:10;;;;;;;7.40;1.55;;;;;;;;;;5000400;28;20043;-49
2022/10/07 06:26:41;;;;;;;7.72;1.83;;;;;;;;;;4989853;28;20054;-49
2022/10/07 06:29:11;;;;;;;6.50;2.08;;;;;;;;;;4990446;28;20146;-46
2022/10/07 06:31:49;;;;;;;7.40;2.17;;;;;;;;;;4992378;28;20046;-50
2022/10/07 06:34:19;;;;;;;9.07;2.00;;;;;;;;;;4987831;28;20050;-48
2022/10/07 06:36:50;;;;;;;10.98;2.67;;;;;;;;;;4986722;28;20058;-50
2022/10/07 06:39:20;;;;;;;7.10;2.08;;;;;;;;;;4987470;28;20055;-49
2022/10/07 06:41:48;;;;;;;4.93;1.63;;;;;;;;;;4991836;28;20062;-48
2022/10/07 06:44:16;;;;;;;10.35;2.38;;;;;;;;;;4983855;28;20056;-45
2022/10/07 06:46:53;;;;;;;7.88;2.20;;;;;;;;;;4996333;28;20046;-47
2022/10/07 06:49:21;;;;;;;6.43;1.98;;;;;;;;;;4995060;28;20357;-48
2022/10/07 06:51:50;;;;;;;10.90;2.63;;;;;;;;;;4995396;28;20056;-47
2022/10/07 06:54:17;;;;;;;8.52;1.80;;;;;;;;;;4995400;28;20042;-50
2022/10/07 06:56:47;;;;;;;14.13;2.17;;;;;;;;;;4995671;28;20046;-52
2022/10/07 06:59:15;;;;;;;7.95;1.85;;;;;;;;;;4995947;28;20050;-52
2022/10/07 07:01:55;;;;;;;5.35;1.85;;;;;;;;;;4995221;28;20042;-51
2022/10/07 07:04:25;;;;;;;4.63;1.60;;;;;;;;;;4995252;28;20472;-51
2022/10/07 07:06:56;;;;;;;7.95;1.80;;;;;;;;;;4994701;28;20054;-47
2022/10/07 07:09:24;;;;;;;6.15;2.17;;;;;;;;;;4993453;28;20517;-48
2022/10/07 07:11:53;;;;;;;6.32;2.15;;;;;;;;;;4985226;28;20173;-49
2022/10/07 07:14:24;;;;;;;11.07;1.80;;;;;;;;;;4985204;28;20042;-48
2022/10/07 07:16:57;;;;;;;5.25;1.85;;;;;;;;;;4994730;28;20664;-48
2022/10/07 07:19:26;;;;;;;4.03;1.42;;;;;;;;;;4989854;28;20050;-49
2022/10/07 07:21:55;;;;;;;5.25;1.77;;;;;;;;;;4995091;28;20061;-48
2022/10/07 07:24:25;;;;;;;13.18;2.85;;;;;;;;;;4981019;28;20419;-49
2022/10/07 07:26:51;;;;;;;5.13;1.70;;;;;;;;;;4988448;28;20066;-48
2022/10/07 07:29:21;;;;;;;7.75;1.60;;;;;;;;;;4991312;28;20046;-50
2022/10/07 07:31:51;;;;;;;8.75;1.90;;;;;;;;;;4986655;28;20511;-48
2022/10/07 07:34:20;;;;;;;5.50;1.48;;;;;;;;;;4990780;28;20065;-48
2022/10/07 07:36:50;;;;;;;5.38;1.25;;;;;;;;;;4987094;28;20065;-49
2022/10/07 07:39:19;;;;;;;7.40;2.45;;;;;;;;;;4992494;28;20078;-48
2022/10/07 07:41:50;;;;;;;8.25;1.70;;;;;;;;;;4985680;28;20055;-46
2022/10/07 07:44:20;;;;;;;7.32;1.70;;;;;;;;;;4993842;28;20046;-47
2022/10/07 07:46:49;;;;;;;5.50;1.35;;;;;;;;;;4995043;28;20067;-47
2022/10/07 07:49:17;;;;;;;3.90;1.27;;;;;;;;;;4992038;28;20241;-47
2022/10/07 07:51:49;;;;;;;9.73;1.65;;;;;;;;;;4985261;28;20047;-48
2022/10/07 07:54:16;;;;;;;8.48;1.85;;;;;;;;;;4993462;28;20061;-49
2022/10/07 07:56:45;;;;;;;4.22;1.40;;;;;;;;;;4976883;28;20372;-50
2022/10/07 07:59:13;;;;;;;5.78;1.83;;;;;;;;;;4987668;28;20432;-48
2022/10/07 08:01:42;;;;;;;9.15;1.77;;;;;;;;;;4996889;28;20061;-50
2022/10/07 08:04:14;;;;;;;7.20;1.75;;;;;;;;;;4988038;28;20409;-49
2022/10/07 08:06:44;;;;;;;6.93;1.45;;;;;;;;;;4991024;28;20157;-51
2022/10/07 08:09:28;;;;;;;6.45;1.38;;;;;;;;;;4988480;28;20050;-47
2022/10/07 08:11:56;;;;;;;5.65;1.40;;;;;;;;;;4985555;28;20447;-48
2022/10/07 08:14:24;;;;;;;6.88;1.65;;;;;;;;;;4985558;28;20559;-48
2022/10/07 08:16:57;;;;;;;5.03;2.03;;;;;;;;;;4993198;28;20050;-50
2022/10/07 08:19:29;;;;;;;7.60;1.58;;;;;;;;;;4990668;28;20375;-48
2022/10/07 08:21:57;;;;;;;7.07;1.75;;;;;;;;;;4994510;28;20069;-50
2022/10/07 08:24:29;;;;;;;7.40;1.65;;;;;;;;;;4993967;28;20046;-50
2022/10/07 08:26:59;;;;;;;7.95;1.77;;;;;;;;;;4985508;28;20058;-48
2022/10/07 08:29:28;;;;;;;7.00;1.70;;;;;;;;;;4988429;28;20085;-47
2022/10/07 08:31:56;;;;;;;7.13;1.70;;;;;;;;;;4992617;28;20060;-50
2022/10/07 08:34:26;;;;;;;7.90;1.52;;;;;;;;;;4990443;28;20042;-49
2022/10/07 08:36:52;;;;;;;4.93;1.40;;;;;;;;;;4989186;28;20054;-47
2022/10/07 08:39:20;;;;;;;5.40;1.30;;;;;;;;;;4983808;28;20057;-51
2022/10/07 08:41:55;;;;;;;4.03;1.27;;;;;;;;;;4985984;28;20482;-47
2022/10/07 08:44:25;;;;;;;8.10;1.70;;;;;;;;;;4977549;28;20065;-48
2022/10/07 08:46:56;;;;;;;7.53;1.40;;;;;;;;;;4984534;28;20058;-48
2022/10/07 08:49:30;;;;;;;9.88;1.80;;;;;;;;;;4992807;28;20046;-48
2022/10/07 08:52:02;;;;;;;5.15;1.45;;;;;;;;;;4992692;28;20463;-49
2022/10/07 08:54:33;;;;;;;5.60;1.33;;;;;;;;;;4985512;28;20062;-48
2022/10/07 08:57:09;;;;;;;4.68;1.30;;;;;;;;;;4977278;28;20109;-48
2022/10/07 08:59:43;;;;;;;5.30;1.33;;;;;;;;;;4980275;28;20059;-49
2022/10/07 09:02:20;;;;;;;3.47;0.98;;;;;;;;;;4984291;28;20082;-49
2022/10/07 09:04:53;;;;;;;6.30;1.55;;;;;;;;;;4993190;28;20357;-49
2022/10/07 09:07:30;;;;;;;7.13;1.73;;;;;;;;;;4988030;28;20050;-49
2022/10/07 09:10:01;;;;;;;3.55;1.35;;;;;;;;;;4988842;28;20527;-51
2022/10/07 09:12:40;;;;;;;9.50;1.55;;;;;;;;;;4978005;28;20128;-52
2022/10/07 09:15:19;;;;;;;7.60;1.80;;;;;;;;;;4986190;28;20055;-51
2022/10/07 09:17:51;;;;;;;4.70;1.63;;;;;;;;;;4992260;28;20050;-53
2022/10/07 09:20:25;;;;;;;4.63;1.27;;;;;;;;;;4991959;28;20046;-54
2022/10/07 09:22:56;;;;;;;4.15;1.40;;;;;;;;;;4977384;28;20066;-49
2022/10/07 09:25:25;;;;;;;12.05;1.90;;;;;;;;;;4982147;28;20452;-48
2022/10/07 09:27:55;;;;;;;9.75;1.70;;;;;;;;;;4991141;28;20072;-49
2022/10/07 09:30:26;;;;;;;14.70;1.77;;;;;;;;;;4988313;28;20054;-53
2022/10/07 09:32:57;;;;;;;4.68;1.67;;;;;;;;;;4981448;28;20149;-49
2022/10/07 09:35:28;;;;;;;5.63;1.20;;;;;;;;;;4984054;28;20042;-50
2022/10/07 09:37:56;;;;;;;8.25;1.65;;;;;;;;;;4987148;28;20060;-48
2022/10/07 09:40:34;;;;;;;6.07;1.23;;;;;;;;;;4990442;28;20137;-49
2022/10/07 09:43:12;;;;;;;6.75;1.40;;;;;;;;;;4989073;28;20050;-49
2022/10/07 09:45:44;;;;;;;6.78;1.67;;;;;;;;;;4988515;28;20043;-51
2022/10/07 09:48:19;;;;;;;5.30;1.42;;;;;;;;;;4979038;28;20046;-51
2022/10/07 09:50:49;;;;;;;3.72;1.63;;;;;;;;;;4992129;28;20472;-49
2022/10/07 09:53:28;;;;;;;4.15;1.35;;;;;;;;;;4988909;28;20459;-48
2022/10/07 09:55:57;;;;;;;10.15;1.80;;;;;;;;;;4984447;28;20050;-49
2022/10/07 09:58:31;;;;;;;5.43;1.30;;;;;;;;;;4986604;28;20479;-50
2022/10/07 10:01:09;;;;;;;4.85;1.30;;;;;;;;;;4979629;28;20078;-50
2022/10/07 10:03:36;;;;;;;4.38;1.40;;;;;;;;;;4978735;28;20054;-48
2022/10/07 10:06:04;;;;;;;10.23;1.45;;;;;;;;;;4980416;28;20052;-53
2022/10/07 10:08:33;;;;;;;11.93;1.77;;;;;;;;;;4982429;28;20047;-49
2022/10/07 10:11:01;;;;;;;9.25;1.50;;;;;;;;;;4987662;28;20058;-49
2022/10/07 10:13:43;;;;;;;7.93;1.50;;;;;;;;;;4989331;28;20097;-47
2022/10/07 10:16:27;;;;;;;5.95;1.05;;;;;;;;;;4989150;28;20050;-47
2022/10/07 10:18:57;;;;;;;3.30;1.35;;;;;;;;;;4991329;28;20133;-48
2022/10/07 10:21:29;;;;;;;6.68;1.45;;;;;;;;;;4995273;28;20046;-49
2022/10/07 10:23:58;;;;;;;11.32;1.92;;;;;;;;;;4991532;28;20050;-49
2022/10/07 10:27:03;;;;;;;4.57;1.30;;;;;;;;;;4993557;28;20129;-50
2022/10/07 10:29:42;;;;;;;3.42;1.27;;;;;;;;;;4990585;28;20093;-51
2022/10/07 10:32:23;;;;;;;4.70;1.40;;;;;;;;;;4993236;28;20082;-47
2022/10/07 10:34:54;;;;;;;3.83;1.40;;;;;;;;;;4989746;28;20064;-47
2022/10/07 10:37:30;;;;;;;10.18;1.38;;;;;;;;;;4992714;28;20050;-49
2022/10/07 10:40:03;;;;;;;8.00;1.40;;;;;;;;;;4986961;28;20066;-49
2022/10/07 10:42:35;;;;;;;5.78;1.15;;;;;;;;;;4987675;28;20051;-49
2022/10/07 10:45:15;;;;;;;12.57;1.45;;;;;;;;;;4993468;28;20050;-48
2022/10/07 10:47:52;;;;;;;8.20;1.48;;;;;;;;;;4991557;28;20073;-46
2022/10/07 10:50:28;;;;;;;7.70;1.10;;;;;;;;;;4991015;28;20454;-50
2022/10/07 10:53:03;;;;;;;8.43;1.40;;;;;;;;;;4987181;28;20051;-48
2022/10/07 10:55:35;;;;;;;;;;;;;;;;;;4992208;28;20050;-50
2022/10/07 10:58:11;;;;;;;9.60;1.90;;;;;;;;;;4981827;28;20282;-49
2022/10/07 11:00:45;;;;;;;5.40;1.30;;;;;;;;;;4993821;28;20050;-48
2022/10/07 11:03:27;;;;;;;4.05;1.20;;;;;;;;;;4991221;28;20050;-48
2022/10/07 11:05:58;;;;;;;5.25;1.10;;;;;;;;;;4991381;28;20486;-51
2022/10/07 11:08:30;;;;;;;5.05;1.02;;;;;;;;;;4992972;28;20085;-49
2022/10/07 11:10:59;;;;;;;9.02;1.67;;;;;;;;;;4995332;28;20124;-50
2022/10/07 11:13:35;;;;;;;5.65;1.05;;;;;;;;;;4994987;28;20069;-51
2022/10/07 11:16:13;;;;;;;5.85;1.20;;;;;;;;;;4994096;28;20054;-48
2022/10/07 11:18:50;;;;;;;5.40;1.38;;;;;;;;;;4995502;28;20049;-49
2022/10/07 11:21:23;;;;;;;11.73;1.48;;;;;;;;;;4995317;28;20124;-51
2022/10/07 11:23:56;;;;;;;6.75;1.25;;;;;;;;;;4995990;28;20062;-52
2022/10/07 11:26:26;;;;;;;4.45;1.15;;;;;;;;;;4999030;28;20056;-50
2022/10/07 11:28:55;;;;;;;6.45;1.30;;;;;;;;;;4995799;28;20062;-50
2022/10/07 11:31:39;;;;;;;3.72;1.15;;;;;;;;;;4985392;28;20065;-50
2022/10/07 11:34:16;;;;;;;5.47;1.05;;;;;;;;;;4993112;28;20125;-51
2022/10/07 11:36:47;;;;;;;8.70;1.70;;;;;;;;;;4992100;28;20093;-49
2022/10/07 11:39:17;;;;;;;14.05;1.95;;;;;;;;;;4985142;28;20057;-48
2022/10/07 11:41:48;;;;;;;8.18;2.03;;;;;;;;;;4989902;28;20046;-48
2022/10/07 11:44:26;;;;;;;7.40;1.30;;;;;;;;;;4981099;28;20500;-50
2022/10/07 11:46:55;;;;;;;3.42;0.98;;;;;;;;;;4977524;28;20057;-51
2022/10/07 11:49:32;;;;;;;4.82;1.40;;;;;;;;;;4979199;28;20057;-50
2022/10/07 11:52:09;;;;;;;3.45;1.60;;;;;;;;;;4983545;28;20133;-50
2022/10/07 11:54:40;;;;;;;8.30;1.60;;;;;;;;;;4991335;28;20057;-51
2022/10/07 11:57:28;;;;;;;6.28;1.38;;;;;;;;;;4994149;28;20391;-48
2022/10/07 12:00:06;;;;;;;5.68;1.35;;;;;;;;;;4988724;28;20054;-51
2022/10/07 12:02:52;;;;;;;6.30;1.20;;;;;;;;;;4985338;28;20128;-49
2022/10/07 12:05:38;;;;;;;2.55;0.98;;;;;;;;;;4989031;28;20046;-47
2022/10/07 12:08:26;;;;;;;6.55;0.98;;;;;;;;;;4988990;28;20059;-48
2022/10/07 12:10:56;;;;;;;10.27;1.67;;;;;;;;;;4987926;28;20059;-49
2022/10/07 12:13:42;;;;;;;4.07;1.10;;;;;;;;;;4990968;28;20054;-50
2022/10/07 12:16:44;;;;;;;3.85;1.30;;;;;;;;;;4986722;28;20108;-51
2022/10/07 12:19:18;;;;;;;4.82;1.23;;;;;;;;;;4981818;28;20364;-52
2022/10/07 12:22:16;;;;;;;2.85;1.10;;;;;;;;;;4987870;28;20542;-49
2022/10/07 12:24:53;;;;;;;6.28;1.10;;;;;;;;;;4955850;28;20042;-49
2022/10/07 12:27:26;;;;;;;5.15;1.33;;;;;;;;;;4981395;28;20063;-51
2022/10/07 12:30:05;;;;;;;4.60;1.23;;;;;;;;;;4979971;28;20054;-49
2022/10/07 12:32:47;;;;;;;9.73;1.50;;;;;;;;;;4989204;28;20058;-49
2022/10/07 12:35:44;;;;;;;8.82;2.03;;;;;;;;;;4992351;28;20101;-48
2022/10/07 12:38:26;;;;;;;4.57;1.80;;;;;;;;;;4987805;28;20061;-49
2022/10/07 12:41:23;;;;;;;7.47;1.65;;;;;;;;;;4986076;28;20057;-47
2022/10/07 12:43:53;;;;;;;4.75;1.58;;;;;;;;;;4986568;28;20065;-46
2022/10/07 12:46:28;;;;;;;4.80;1.80;;;;;;;;;;4993566;28;20042;-46
2022/10/07 12:49:04;;;;;;;8.35;1.50;;;;;;;;;;4994167;28;20050;-46
2022/10/07 12:51:36;;;;;;;7.18;1.70;;;;;;;;;;4994107;28;20060;-48
2022/10/07 12:54:17;;;;;;;4.45;1.40;;;;;;;;;;4989757;28;20128;-48
2022/10/07 12:56:47;;;;;;;4.00;1.13;;;;;;;;;;4987881;28;20065;-48
2022/10/07 13:02:31;;;;;;;8.13;1.58;;;;;;;;;;4992700;28;20113;-49
2022/10/07 13:05:20;;;;;;;2.97;1.20;;;;;;;;;;4989356;28;20310;-49
2022/10/07 13:08:08;;;;;;;6.78;1.45;;;;;;;;;;4981025;28;20674;-48
2022/10/07 13:11:17;;;;;;;5.30;1.20;;;;;;;;;;4989728;28;20071;-49
2022/10/07 13:13:47;;;;;;;9.02;1.60;;;;;;;;;;4979421;28;20066;-48
2022/10/07 13:16:18;;;;;;;6.88;1.40;;;;;;;;;;4991400;28;20050;-51
2022/10/07 13:18:49;;;;;;;4.13;1.13;;;;;;;;;;4992457;28;20078;-49
2022/10/07 13:21:30;;;;;;;11.50;1.77;;;;;;;;;;4993452;28;20069;-48
2022/10/07 13:24:05;;;;;;;6.28;1.60;;;;;;;;;;4993211;28;20042;-49
2022/10/07 13:26:36;;;;;;;9.77;1.58;;;;;;;;;;4981438;28;20344;-48
2022/10/07 13:29:06;;;;;;;5.57;1.63;;;;;;;;;;4981877;28;20046;-47
2022/10/07 13:31:33;;;;;;;4.30;1.60;;;;;;;;;;4987853;28;20051;-48
2022/10/07 13:34:16;;;;;;;3.85;1.30;;;;;;;;;;4985868;28;20116;-49
2022/10/07 13:36:43;;;;;;;9.15;1.63;;;;;;;;;;4982619;28;20507;-50
2022/10/07 13:39:13;;;;;;;7.45;1.60;;;;;;;;;;4982849;28;20121;-50
2022/10/07 13:41:47;;;;;;;8.85;1.30;;;;;;;;;;4976334;28;20050;-51
2022/10/07 13:44:19;;;;;;;;;;;;;;;;;;4979232;28;20057;-50
2022/10/07 13:46:57;;;;;;;4.82;1.30;;;;;;;;;;4977378;28;19922;-49
2022/10/07 13:49:26;;;;;;;2.72;1.20;;;;;;;;;;4986471;28;20054;-48
2022/10/07 13:51:56;;;;;;;9.80;1.92;;;;;;;;;;4987793;28;20070;-49
2022/10/07 13:54:26;;;;;;;7.03;1.50;;;;;;;;;;4983442;28;20534;-49
2022/10/07 13:57:08;;;;;;;7.40;1.58;;;;;;;;;;4986368;28;20046;-48
2022/10/07 13:59:35;;;;;;;5.70;1.50;;;;;;;;;;4987288;28;20579;-49
2022/10/07 14:02:06;;;;;;;4.38;1.30;;;;;;;;;;4991636;28;20085;-51
2022/10/07 14:04:36;;;;;;;3.90;1.45;;;;;;;;;;4988666;28;20077;-48
2022/10/07 14:07:19;;;;;;;7.72;1.85;;;;;;;;;;4988511;28;20046;-48
2022/10/07 14:09:56;;;;;;;3.65;1.42;;;;;;;;;;4987151;28;20447;-48
2022/10/07 14:12:33;;;;;;;4.57;1.42;;;;;;;;;;4980488;28;20053;-49
2022/10/07 14:15:05;;;;;;;7.85;1.30;;;;;;;;;;4986951;28;20050;-48
2022/10/07 14:17:42;;;;;;;3.85;1.23;;;;;;;;;;4980856;28;20061;-50
2022/10/07 14:20:19;;;;;;;6.22;1.55;;;;;;;;;;4975578;28;20086;-50
2022/10/07 14:22:52;;;;;;;5.15;1.38;;;;;;;;;;4974260;28;20054;-49
2022/10/07 14:25:26;;;;;;;4.78;1.40;;;;;;;;;;4977535;28;20051;-50
2022/10/07 14:28:06;;;;;;;6.43;1.97;;;;;;;;;;4982339;28;20475;-50
2022/10/07 14:36:20;;;;;;;4.47;2.08;;;;;;;;;;4988840;28;20057;-50
2022/10/07 14:38:51;;;;;;;6.43;1.50;;;;;;;;;;4977077;28;20069;-49
2022/10/07 14:41:27;;;;;;;6.57;1.60;;;;;;;;;;4975828;28;20046;-49
2022/10/07 14:44:10;;;;;;;6.47;1.70;;;;;;;;;;4977302;28;20054;-49
2022/10/07 14:46:40;;;;;;;4.43;1.60;;;;;;;;;;4983653;28;20050;-48
2022/10/07 14:49:11;;;;;;;2.78;1.73;;;;;;;;;;4991060;28;20455;-49
2022/10/07 14:51:39;;;;;;;17.63;2.58;;;;;;;;;;4981796;28;20546;-53
2022/10/07 14:54:07;;;;;;;8.55;1.55;;;;;;;;;;4990564;28;20130;-52
2022/10/07 14:56:34;;;;;;;7.20;1.65;;;;;;;;;;4986377;28;20514;-51
2022/10/07 14:59:09;;;;;;;15.93;1.90;;;;;;;;;;4990396;28;20059;-50
2022/10/07 15:01:39;;;;;;;8.35;1.98;;;;;;;;;;4990654;28;20054;-52
2022/10/07 15:04:06;;;;;;;5.43;2.20;;;;;;;;;;4992924;28;20046;-49
2022/10/07 15:06:37;;;;;;;7.15;1.88;;;;;;;;;;4992998;28;20069;-50
2022/10/07 15:09:07;;;;;;;5.38;2.03;;;;;;;;;;4980808;28;20057;-49
2022/10/07 15:11:36;;;;;;;6.55;1.70;;;;;;;;;;4990629;28;20605;-53
2022/10/07 15:14:12;;;;;;;9.60;2.15;;;;;;;;;;5000648;28;20427;-53
2022/10/07 15:16:40;;;;;;;7.95;2.13;;;;;;;;;;4987352;28;20038;-53
2022/10/07 15:19:08;;;;;;;3.55;1.60;;;;;;;;;;4983126;28;20464;-49
2022/10/07 15:21:34;;;;;;;6.25;1.50;;;;;;;;;;4995027;28;20054;-49
2022/10/07 15:24:04;;;;;;;7.43;1.60;;;;;;;;;;4994454;28;20054;-49
2022/10/07 15:29:13;;;;;;;5.93;1.95;;;;;;;;;;4995393;28;20062;-49
2022/10/07 15:31:44;;;;;;;5.07;1.90;;;;;;;;;;4995145;28;20057;-49
2022/10/07 15:34:15;;;;;;;4.63;1.50;;;;;;;;;;4994806;28;20089;-50